createdAt,value
2023-01-07T00:41:12.785Z,266.00
2023-01-07T00:42:18.564Z,269.00
2023-01-07T00:43:24.497Z,268.00
2023-01-07T00:44:30.830Z,272.00
2023-01-07T00:45:36.486Z,265.00
2023-01-07T00:46:43.070Z,281.00
2023-01-07T00:47:50.062Z,274.00
2023-01-07T00:48:55.812Z,270.00
2023-01-07T00:50:01.537Z,276.00
2023-01-07T00:51:08.304Z,242.00
2023-01-07T00:52:15.122Z,239.00
2023-01-07T00:53:20.813Z,270.00
2023-01-07T00:54:27.441Z,269.00
2023-01-07T00:55:33.256Z,267.00
2023-01-07T00:56:39.060Z,273.00
2023-01-07T00:57:44.689Z,271.00
2023-01-07T00:58:50.463Z,270.00
2023-01-07T00:59:56.365Z,272.00
2023-01-07T01:01:02.239Z,264.00
2023-01-07T01:02:09.168Z,246.00
2023-01-07T01:03:15.100Z,285.00
2023-01-07T01:04:21.129Z,278.00
2023-01-07T01:05:27.427Z,249.00
2023-01-07T01:06:32.991Z,241.00
2023-01-07T01:07:38.803Z,265.00
2023-01-07T01:08:44.586Z,280.00
2023-01-07T01:09:50.421Z,267.00
2023-01-07T01:10:56.573Z,270.00
2023-01-07T01:12:02.153Z,268.00
2023-01-07T01:13:07.821Z,270.00
2023-01-07T01:14:13.546Z,275.00
2023-01-07T01:15:19.284Z,268.00
2023-01-07T01:16:25.725Z,268.00
2023-01-07T01:17:31.338Z,265.00
2023-01-07T01:18:36.940Z,268.00
2023-01-07T01:19:42.680Z,268.00
2023-01-07T01:20:48.232Z,270.00
2023-01-07T01:21:54.058Z,270.00
2023-01-07T01:22:59.647Z,270.00
2023-01-07T01:24:05.223Z,250.00
2023-01-07T01:25:10.786Z,277.00
2023-01-07T01:26:16.413Z,269.00
2023-01-07T01:27:21.941Z,247.00
2023-01-07T01:28:28.273Z,280.00
2023-01-07T01:29:33.883Z,268.00
2023-01-07T01:30:39.334Z,279.00
2023-01-07T01:31:45.035Z,246.00
2023-01-07T01:32:50.499Z,275.00
2023-01-07T01:33:56.028Z,272.00
2023-01-07T01:35:01.595Z,266.00
2023-01-07T01:36:07.177Z,260.00
2023-01-07T01:37:12.764Z,270.00
2023-01-07T01:38:18.297Z,270.00
2023-01-07T01:39:23.847Z,177.00
2023-01-07T01:40:29.442Z,19.00
2023-01-07T01:41:35.111Z,270.00
2023-01-07T01:42:40.649Z,270.00
2023-01-07T01:43:46.542Z,267.00
2023-01-07T01:44:52.736Z,253.00
2023-01-07T01:45:58.312Z,282.00
2023-01-07T01:47:03.892Z,270.00
2023-01-07T01:48:09.454Z,272.00
2023-01-07T01:49:15.026Z,270.00
2023-01-07T01:50:20.602Z,270.00
2023-01-07T01:51:26.175Z,270.00
2023-01-07T01:52:31.712Z,212.00
2023-01-07T01:53:37.249Z,306.00
2023-01-07T01:54:42.850Z,288.00
2023-01-07T01:55:48.423Z,270.00
2023-01-07T01:56:54.015Z,270.00
2023-01-07T01:57:59.572Z,270.00
2023-01-07T01:59:05.163Z,270.00
2023-01-07T02:00:10.709Z,270.00
2023-01-07T02:01:16.378Z,270.00
2023-01-07T02:02:22.125Z,270.00
2023-01-07T02:03:27.705Z,280.00
2023-01-07T02:04:33.378Z,281.00
2023-01-07T02:05:40.494Z,279.00
2023-01-07T02:06:46.124Z,298.00
2023-01-07T02:07:51.693Z,268.00
2023-01-07T02:08:57.277Z,281.00
2023-01-07T02:10:02.870Z,198.00
2023-01-07T02:11:08.453Z,288.00
2023-01-07T02:12:13.993Z,271.00
2023-01-07T02:13:19.560Z,273.00
2023-01-07T02:14:25.179Z,287.00
2023-01-07T02:15:30.734Z,240.00
2023-01-07T02:16:36.325Z,278.00
2023-01-07T02:17:41.896Z,229.00
2023-01-07T02:18:47.510Z,272.00
2023-01-07T02:19:53.112Z,277.00
2023-01-07T02:20:58.883Z,270.00
2023-01-07T02:22:04.411Z,256.00
2023-01-07T02:23:09.999Z,214.00
2023-01-07T02:24:15.554Z,100.00
2023-01-07T02:25:21.142Z,72.00
2023-01-07T02:26:26.693Z,191.00
2023-01-07T02:27:32.235Z,291.00
2023-01-07T02:28:37.764Z,298.00
2023-01-07T02:29:43.362Z,270.00
2023-01-07T02:30:48.926Z,255.00
2023-01-07T02:31:54.657Z,188.00
2023-01-07T02:33:00.217Z,91.00
2023-01-07T02:34:05.820Z,96.00
2023-01-07T02:35:11.383Z,110.00
2023-01-07T02:36:16.984Z,134.00
2023-01-07T02:37:22.697Z,80.00
2023-01-07T02:38:28.252Z,222.00
2023-01-07T02:39:33.867Z,231.00
2023-01-07T02:40:39.454Z,112.00
2023-01-07T02:41:45.076Z,253.00
2023-01-07T02:42:50.655Z,249.00
2023-01-07T02:43:56.232Z,271.00
2023-01-07T02:45:01.842Z,265.00
2023-01-07T02:46:07.449Z,218.00
2023-01-07T02:47:13.037Z,274.00
2023-01-07T02:48:18.713Z,225.00
2023-01-07T02:49:24.319Z,225.00
2023-01-07T02:50:29.894Z,211.00
2023-01-07T02:51:35.468Z,200.00
2023-01-07T02:52:41.075Z,211.00
2023-01-07T02:53:46.704Z,44.00
2023-01-07T02:54:52.265Z,294.00
2023-01-07T02:55:57.837Z,220.00
2023-01-07T02:57:03.403Z,291.00
2023-01-07T02:58:09.036Z,205.00
2023-01-07T02:59:14.564Z,30.00
2023-01-07T03:00:20.157Z,130.00
2023-01-07T03:01:25.872Z,141.00
2023-01-07T03:02:31.447Z,306.00
2023-01-07T03:03:37.011Z,288.00
2023-01-07T03:04:42.624Z,270.00
2023-01-07T03:05:48.176Z,280.00
2023-01-07T03:06:53.760Z,134.00
2023-01-07T03:07:59.341Z,203.00
2023-01-07T03:09:04.921Z,230.00
2023-01-07T03:10:10.503Z,118.00
2023-01-07T03:11:16.037Z,154.00
2023-01-07T03:12:21.593Z,45.00
2023-01-07T03:13:27.212Z,71.00
2023-01-07T03:14:32.828Z,161.00
2023-01-07T03:15:38.435Z,251.00
2023-01-07T03:16:44.025Z,266.00
2023-01-07T03:17:49.574Z,262.00
2023-01-07T03:18:55.152Z,239.00
2023-01-07T03:20:00.755Z,204.00
2023-01-07T03:21:06.310Z,274.00
2023-01-07T03:22:11.871Z,253.00
2023-01-07T03:23:17.429Z,269.00
2023-01-07T03:24:22.992Z,273.00
2023-01-07T03:25:28.545Z,296.00
2023-01-07T03:26:34.121Z,183.00
2023-01-07T03:27:39.637Z,209.00
2023-01-07T03:28:45.177Z,190.00
2023-01-07T03:29:50.718Z,257.00
2023-01-07T03:30:56.222Z,283.00
2023-01-07T03:32:01.888Z,155.00
2023-01-07T03:33:07.450Z,52.00
2023-01-07T03:34:12.993Z,85.00
2023-01-07T03:35:18.503Z,104.00
2023-01-07T03:36:24.050Z,106.00
2023-01-07T03:37:29.583Z,63.00
2023-01-07T03:38:35.160Z,137.00
2023-01-07T03:39:40.736Z,166.00
2023-01-07T03:40:46.275Z,90.00
2023-01-07T03:41:51.810Z,237.00
2023-01-07T03:42:57.368Z,245.00
2023-01-07T03:44:02.875Z,280.00
2023-01-07T03:45:08.388Z,270.00
2023-01-07T03:46:13.929Z,91.00
2023-01-07T03:47:19.428Z,131.00
2023-01-07T03:48:24.949Z,111.00
2023-01-07T03:49:30.482Z,89.00
2023-01-07T03:50:36.012Z,122.00
2023-01-07T03:51:41.490Z,95.00
2023-01-07T03:52:47.028Z,99.00
2023-01-07T03:53:52.489Z,90.00
2023-01-07T03:54:58.042Z,74.00
2023-01-07T03:56:03.605Z,138.00
2023-01-07T03:57:09.066Z,275.00
2023-01-07T03:58:14.555Z,283.00
2023-01-07T03:59:20.087Z,281.00
2023-01-07T04:00:25.577Z,271.00
2023-01-07T04:01:31.170Z,259.00
2023-01-07T04:02:36.686Z,275.00
2023-01-07T04:03:42.159Z,265.00
2023-01-07T04:04:47.836Z,76.00
2023-01-07T04:05:53.379Z,119.00
2023-01-07T04:06:58.849Z,54.00
2023-01-07T04:08:04.383Z,143.00
2023-01-07T04:09:09.842Z,146.00
2023-01-07T04:10:15.340Z,167.00
2023-01-07T04:11:20.823Z,234.00
2023-01-07T04:12:26.351Z,42.00
2023-01-07T04:13:31.906Z,89.00
2023-01-07T04:14:37.426Z,122.00
2023-01-07T04:15:43.005Z,139.00
2023-01-07T04:16:48.528Z,222.00
2023-01-07T04:17:54.048Z,89.00
2023-01-07T04:18:59.584Z,93.00
2023-01-07T04:20:05.149Z,165.00
2023-01-07T04:21:10.673Z,116.00
2023-01-07T04:22:16.192Z,190.00
2023-01-07T04:23:21.700Z,198.00
2023-01-07T04:24:27.204Z,112.00
2023-01-07T04:25:32.803Z,173.00
2023-01-07T04:26:38.273Z,286.00
2023-01-07T04:27:43.760Z,118.00
2023-01-07T04:28:49.334Z,249.00
2023-01-07T04:29:54.837Z,270.00
2023-01-07T04:31:00.332Z,71.00
2023-01-07T04:32:05.908Z,263.00
2023-01-07T04:33:11.381Z,290.00
2023-01-07T04:34:16.912Z,274.00
2023-01-07T04:35:22.385Z,239.00
2023-01-07T04:36:27.870Z,145.00
2023-01-07T04:37:33.338Z,282.00
2023-01-07T04:38:38.838Z,288.00
2023-01-07T04:39:44.330Z,287.00
2023-01-07T04:40:49.770Z,277.00
2023-01-07T04:41:55.240Z,229.00
2023-01-07T04:43:00.695Z,243.00
2023-01-07T04:44:06.141Z,76.00
2023-01-07T04:45:11.633Z,209.00
2023-01-07T04:46:17.136Z,258.00
2023-01-07T04:47:22.626Z,101.00
2023-01-07T04:48:28.127Z,216.00
2023-01-07T04:49:33.607Z,289.00
2023-01-07T04:50:39.080Z,271.00
2023-01-07T04:51:44.546Z,243.00
2023-01-07T04:52:50.046Z,236.00
2023-01-07T04:53:55.493Z,235.00
2023-01-07T04:55:01.023Z,268.00
2023-01-07T04:56:06.508Z,268.00
2023-01-07T04:57:11.977Z,260.00
2023-01-07T04:58:17.455Z,275.00
2023-01-07T04:59:22.960Z,267.00
2023-01-07T05:00:28.443Z,263.00
2023-01-07T05:01:34.085Z,268.00
2023-01-07T05:02:39.637Z,272.00
2023-01-07T05:03:45.156Z,189.00
2023-01-07T05:04:50.733Z,216.00
2023-01-07T05:05:56.181Z,199.00
2023-01-07T05:07:01.636Z,264.00
2023-01-07T05:08:07.003Z,149.00
2023-01-07T05:09:12.387Z,170.00
2023-01-07T05:10:17.839Z,224.00
2023-01-07T05:11:23.286Z,243.00
2023-01-07T05:12:28.767Z,115.00
2023-01-07T05:13:34.232Z,257.00
2023-01-07T05:14:39.747Z,219.00
2023-01-07T05:15:45.265Z,271.00
2023-01-07T05:16:50.895Z,237.00
2023-01-07T05:17:56.512Z,256.00
2023-01-07T05:19:02.005Z,238.00
2023-01-07T05:20:07.527Z,228.00
2023-01-07T05:21:13.147Z,167.00
2023-01-07T05:22:18.631Z,63.00
2023-01-07T05:23:24.132Z,262.00
2023-01-07T05:24:29.645Z,202.00
2023-01-07T05:25:35.094Z,147.00
2023-01-07T05:26:40.465Z,146.00
2023-01-07T05:27:45.928Z,98.00
2023-01-07T05:28:51.427Z,114.00
2023-01-07T05:29:56.917Z,187.00
2023-01-07T05:31:02.532Z,284.00
2023-01-07T05:32:07.927Z,250.00
2023-01-07T05:33:13.405Z,198.00
2023-01-07T05:34:18.818Z,248.00
2023-01-07T05:35:24.342Z,282.00
2023-01-07T05:36:29.732Z,253.00
2023-01-07T05:37:35.162Z,260.00
2023-01-07T05:38:40.522Z,227.00
2023-01-07T05:39:45.908Z,272.00
2023-01-07T05:40:51.325Z,232.00
2023-01-07T05:41:56.748Z,260.00
2023-01-07T05:43:02.184Z,271.00
2023-01-07T05:44:07.662Z,250.00
2023-01-07T05:45:13.135Z,241.00
2023-01-07T05:46:18.538Z,214.00
2023-01-07T05:47:23.881Z,296.00
2023-01-07T05:48:29.245Z,267.00
2023-01-07T05:49:34.634Z,269.00
2023-01-07T05:50:40.011Z,256.00
2023-01-07T05:51:45.376Z,272.00
2023-01-07T05:52:50.759Z,257.00
2023-01-07T05:53:56.188Z,260.00
2023-01-07T05:55:01.549Z,265.00
2023-01-07T05:56:06.924Z,280.00
2023-01-07T05:57:12.307Z,232.00
2023-01-07T05:58:17.684Z,245.00
2023-01-07T05:59:23.076Z,262.00
2023-01-07T06:00:28.439Z,271.00
2023-01-07T06:01:33.868Z,221.00
2023-01-07T06:02:39.256Z,251.00
2023-01-07T06:03:44.696Z,196.00
2023-01-07T06:04:50.162Z,283.00
2023-01-07T06:05:55.586Z,193.00
2023-01-07T06:07:00.950Z,255.00
2023-01-07T06:08:06.339Z,248.00
2023-01-07T06:09:11.737Z,266.00
2023-01-07T06:10:17.165Z,196.00
2023-01-07T06:11:22.551Z,266.00
2023-01-07T06:12:27.952Z,260.00
2023-01-07T06:13:33.349Z,263.00
2023-01-07T06:14:38.751Z,277.00
2023-01-07T06:15:44.214Z,266.00
2023-01-07T06:16:49.627Z,241.00
2023-01-07T06:17:55.018Z,236.00
2023-01-07T06:19:00.417Z,271.00
2023-01-07T06:20:05.837Z,249.00
2023-01-07T06:21:11.251Z,262.00
2023-01-07T06:22:16.644Z,228.00
2023-01-07T06:23:22.048Z,233.00
2023-01-07T06:24:27.472Z,257.00
2023-01-07T06:25:32.866Z,245.00
2023-01-07T06:26:38.304Z,254.00
2023-01-07T06:27:43.801Z,276.00
2023-01-07T06:28:49.188Z,226.00
2023-01-07T06:29:54.596Z,212.00
2023-01-07T06:31:00.084Z,243.00
2023-01-07T06:32:05.548Z,267.00
2023-01-07T06:33:10.912Z,262.00
2023-01-07T06:34:16.324Z,227.00
2023-01-07T06:35:21.813Z,234.00
2023-01-07T06:36:27.192Z,234.00
2023-01-07T06:37:32.608Z,259.00
2023-01-07T06:38:38.033Z,229.00
2023-01-07T06:39:43.477Z,268.00
2023-01-07T06:40:48.878Z,261.00
2023-01-07T06:41:54.286Z,265.00
2023-01-07T06:42:59.748Z,265.00
2023-01-07T06:44:05.132Z,255.00
2023-01-07T06:45:10.904Z,245.00
2023-01-07T06:46:16.390Z,249.00
2023-01-07T06:47:21.808Z,284.00
2023-01-07T06:48:27.250Z,256.00
2023-01-07T06:49:32.689Z,271.00
2023-01-07T06:50:38.125Z,267.00
2023-01-07T06:51:43.533Z,258.00
2023-01-07T06:52:48.966Z,267.00
2023-01-07T06:53:54.372Z,261.00
2023-01-07T06:54:59.795Z,252.00
2023-01-07T06:56:05.220Z,269.00
2023-01-07T06:57:10.631Z,242.00
2023-01-07T06:58:16.048Z,271.00
2023-01-07T06:59:21.490Z,280.00
2023-01-07T07:00:26.936Z,271.00
2023-01-07T07:01:32.501Z,264.00
2023-01-07T07:02:37.975Z,266.00
2023-01-07T07:03:43.370Z,254.00
2023-01-07T07:04:48.808Z,253.00
2023-01-07T07:05:54.232Z,265.00
2023-01-07T07:06:59.669Z,265.00
2023-01-07T07:08:05.114Z,263.00
2023-01-07T07:09:10.528Z,271.00
2023-01-07T07:10:15.978Z,271.00
2023-01-07T07:11:21.429Z,263.00
2023-01-07T07:12:26.853Z,252.00
2023-01-07T07:13:32.342Z,276.00
2023-01-07T07:14:37.735Z,266.00
2023-01-07T07:15:43.269Z,258.00
2023-01-07T07:16:48.663Z,269.00
2023-01-07T07:17:54.106Z,266.00
2023-01-07T07:18:59.518Z,264.00
2023-01-07T07:20:04.979Z,267.00
2023-01-07T07:21:10.386Z,272.00
2023-01-07T07:22:15.818Z,280.00
2023-01-07T07:23:21.275Z,278.00
2023-01-07T07:24:26.693Z,262.00
2023-01-07T07:25:32.146Z,276.00
2023-01-07T07:26:37.544Z,272.00
2023-01-07T07:27:42.966Z,301.00
2023-01-07T07:28:48.377Z,281.00
2023-01-07T07:29:53.839Z,203.00
2023-01-07T07:30:59.310Z,180.00
2023-01-07T07:32:04.754Z,75.00
2023-01-07T07:33:10.138Z,37.00
2023-01-07T07:34:15.579Z,106.00
2023-01-07T07:35:21.008Z,104.00
2023-01-07T07:36:26.443Z,112.00
2023-01-07T07:37:31.845Z,244.00
2023-01-07T07:38:37.266Z,297.00
2023-01-07T07:39:42.675Z,173.00
2023-01-07T07:40:48.096Z,264.00
2023-01-07T07:41:53.497Z,249.00
2023-01-07T07:43:12.461Z,252.00
2023-01-07T07:44:10.209Z,283.00
2023-01-07T07:45:15.629Z,256.00
2023-01-07T07:46:21.087Z,225.00
2023-01-07T07:47:26.475Z,267.00
2023-01-07T07:48:31.913Z,262.00
2023-01-07T07:49:37.293Z,271.00
2023-01-07T07:50:42.691Z,266.00
2023-01-07T07:51:48.103Z,257.00
2023-01-07T07:52:53.500Z,247.00
2023-01-07T07:53:58.904Z,220.00
2023-01-07T07:55:20.664Z,238.00
2023-01-07T07:56:15.575Z,265.00
2023-01-07T07:57:20.952Z,197.00
2023-01-07T07:58:26.356Z,182.00
2023-01-07T07:59:31.742Z,242.00
2023-01-07T08:00:37.115Z,90.00
2023-01-07T08:01:42.625Z,269.00
2023-01-07T08:02:48.059Z,244.00
2023-01-07T08:03:53.420Z,287.00
2023-01-07T08:04:58.850Z,260.00
2023-01-07T08:06:04.221Z,259.00
2023-01-07T08:07:09.652Z,291.00
2023-01-07T08:08:15.161Z,283.00
2023-01-07T08:09:20.572Z,261.00
2023-01-07T08:10:26.041Z,302.00
2023-01-07T08:11:31.521Z,277.00
2023-01-07T08:12:36.991Z,156.00
2023-01-07T08:13:43.262Z,238.00
2023-01-07T08:14:48.812Z,10.00
2023-01-07T08:15:54.344Z,101.00
2023-01-07T08:16:59.810Z,53.00
2023-01-07T08:18:05.277Z,76.00
2023-01-07T08:19:10.764Z,106.00
2023-01-07T08:20:16.292Z,178.00
2023-01-07T08:21:21.831Z,221.00
2023-01-07T08:22:27.326Z,275.00
2023-01-07T08:23:32.848Z,270.00
2023-01-07T08:24:38.416Z,248.00
2023-01-07T08:25:43.973Z,284.00
2023-01-07T08:26:49.529Z,261.00
2023-01-07T08:27:55.113Z,250.00
2023-01-07T08:29:00.698Z,202.00
2023-01-07T08:30:06.365Z,200.00
2023-01-07T08:31:11.981Z,152.00
2023-01-07T08:32:17.542Z,248.00
2023-01-07T08:33:23.184Z,245.00
2023-01-07T08:34:28.716Z,266.00
2023-01-07T08:35:34.290Z,254.00
2023-01-07T08:36:39.857Z,271.00
2023-01-07T08:37:45.452Z,241.00
2023-01-07T08:38:51.021Z,244.00
2023-01-07T08:39:56.616Z,265.00
2023-01-07T08:41:02.198Z,124.00
2023-01-07T08:42:07.814Z,146.00
2023-01-07T08:43:13.429Z,206.00
2023-01-07T08:44:19.010Z,258.00
2023-01-07T08:45:24.586Z,278.00
2023-01-07T08:46:30.207Z,245.00
2023-01-07T08:47:35.738Z,271.00
2023-01-07T08:48:41.311Z,225.00
2023-01-07T08:49:46.885Z,211.00
2023-01-07T08:50:52.442Z,230.00
2023-01-07T08:51:58.016Z,247.00
2023-01-07T08:53:03.620Z,255.00
2023-01-07T08:54:09.154Z,241.00
2023-01-07T08:55:14.703Z,233.00
2023-01-07T08:56:20.266Z,181.00
2023-01-07T08:57:25.784Z,277.00
2023-01-07T08:58:31.322Z,267.00
2023-01-07T08:59:36.846Z,265.00
2023-01-07T09:00:42.423Z,226.00
2023-01-07T09:01:47.979Z,238.00
2023-01-07T09:02:53.511Z,243.00
2023-01-07T09:03:59.017Z,232.00
2023-01-07T09:05:04.541Z,268.00
2023-01-07T09:06:10.035Z,257.00
2023-01-07T09:07:15.523Z,262.00
2023-01-07T09:08:21.025Z,277.00
2023-01-07T09:09:26.508Z,241.00
2023-01-07T09:10:32.068Z,278.00
2023-01-07T09:11:37.525Z,280.00
2023-01-07T09:12:42.995Z,242.00
2023-01-07T09:13:48.480Z,233.00
2023-01-07T09:14:53.968Z,201.00
2023-01-07T09:15:59.503Z,251.00
2023-01-07T09:17:04.965Z,264.00
2023-01-07T09:18:10.428Z,246.00
2023-01-07T09:19:15.909Z,252.00
2023-01-07T09:20:21.398Z,278.00
2023-01-07T09:21:26.862Z,253.00
2023-01-07T09:22:32.320Z,253.00
2023-01-07T09:23:37.789Z,243.00
2023-01-07T09:24:43.256Z,197.00
2023-01-07T09:25:48.712Z,264.00
2023-01-07T09:26:54.222Z,257.00
2023-01-07T09:27:59.653Z,261.00
2023-01-07T09:29:05.078Z,249.00
2023-01-07T09:30:10.516Z,225.00
2023-01-07T09:31:15.953Z,264.00
2023-01-07T09:32:21.452Z,241.00
2023-01-07T09:33:26.871Z,250.00
2023-01-07T09:34:32.309Z,272.00
2023-01-07T09:35:37.733Z,264.00
2023-01-07T09:36:43.148Z,239.00
2023-01-07T09:37:48.565Z,214.00
2023-01-07T09:38:53.992Z,254.00
2023-01-07T09:39:59.434Z,266.00
2023-01-07T09:41:04.876Z,255.00
2023-01-07T09:42:10.303Z,240.00
2023-01-07T09:43:15.771Z,268.00
2023-01-07T09:44:21.171Z,245.00
2023-01-07T09:45:26.626Z,284.00
2023-01-07T09:46:32.036Z,262.00
2023-01-07T09:47:37.422Z,262.00
2023-01-07T09:48:42.816Z,254.00
2023-01-07T09:49:48.563Z,260.00
2023-01-07T09:50:53.941Z,253.00
2023-01-07T09:51:59.322Z,274.00
2023-01-07T09:53:04.678Z,188.00
2023-01-07T09:54:10.035Z,251.00
2023-01-07T09:55:15.425Z,237.00
2023-01-07T09:56:20.787Z,262.00
2023-01-07T09:57:26.139Z,246.00
2023-01-07T09:58:31.507Z,244.00
2023-01-07T09:59:36.906Z,227.00
2023-01-07T10:00:42.298Z,281.00
2023-01-07T10:01:47.690Z,257.00
2023-01-07T10:02:53.173Z,259.00
2023-01-07T10:03:58.631Z,267.00
2023-01-07T10:05:04.007Z,246.00
2023-01-07T10:06:09.433Z,241.00
2023-01-07T10:07:14.790Z,261.00
2023-01-07T10:08:29.067Z,263.00
2023-01-07T10:09:31.427Z,250.00
2023-01-07T10:10:36.780Z,250.00
2023-01-07T10:11:44.085Z,278.00
2023-01-07T10:12:49.464Z,274.00
2023-01-07T10:13:54.820Z,200.00
2023-01-07T10:15:00.139Z,261.00
2023-01-07T10:16:05.798Z,239.00
2023-01-07T10:17:11.209Z,221.00
2023-01-07T10:18:16.584Z,274.00
2023-01-07T10:19:21.961Z,268.00
2023-01-07T10:20:27.355Z,241.00
2023-01-07T10:21:32.719Z,280.00
2023-01-07T10:22:38.125Z,248.00
2023-01-07T10:23:43.527Z,271.00
2023-01-07T10:24:48.937Z,208.00
2023-01-07T10:25:54.372Z,284.00
2023-01-07T10:26:59.783Z,184.00
2023-01-07T10:28:05.175Z,145.00
2023-01-07T10:29:10.561Z,174.00
2023-01-07T10:30:15.984Z,172.00
2023-01-07T10:31:21.400Z,176.00
2023-01-07T10:32:26.809Z,245.00
2023-01-07T10:33:32.227Z,268.00
2023-01-07T10:34:37.556Z,255.00
2023-01-07T10:35:42.901Z,238.00
2023-01-07T10:36:48.250Z,248.00
2023-01-07T10:37:53.579Z,259.00
2023-01-07T10:38:58.917Z,173.00
2023-01-07T10:40:04.378Z,246.00
2023-01-07T10:41:09.813Z,258.00
2023-01-07T10:42:15.209Z,257.00
2023-01-07T10:43:20.626Z,230.00
2023-01-07T10:44:26.065Z,259.00
2023-01-07T10:45:31.596Z,265.00
2023-01-07T10:46:37.016Z,268.00
2023-01-07T10:47:42.484Z,223.00
2023-01-07T10:48:48.000Z,205.00
2023-01-07T10:49:53.504Z,197.00
2023-01-07T10:50:59.002Z,181.00
2023-01-07T10:52:04.481Z,250.00
2023-01-07T10:53:09.913Z,253.00
2023-01-07T10:54:15.348Z,224.00
2023-01-07T10:55:20.768Z,259.00
2023-01-07T10:56:26.121Z,221.00
2023-01-07T10:57:31.483Z,265.00
2023-01-07T10:58:36.808Z,250.00
2023-01-07T10:59:42.155Z,244.00
2023-01-07T11:00:47.557Z,203.00
2023-01-07T11:01:53.082Z,276.00
2023-01-07T11:02:58.561Z,270.00
2023-01-07T11:04:03.912Z,226.00
2023-01-07T11:05:09.288Z,257.00
2023-01-07T11:06:14.585Z,262.00
2023-01-07T11:07:19.913Z,254.00
2023-01-07T11:08:25.268Z,241.00
2023-01-07T11:09:30.642Z,237.00
2023-01-07T11:10:36.168Z,199.00
2023-01-07T11:11:41.628Z,235.00
2023-01-07T11:12:47.042Z,191.00
2023-01-07T11:13:52.546Z,113.00
2023-01-07T11:14:57.994Z,254.00
2023-01-07T11:16:03.429Z,219.00
2023-01-07T11:17:08.836Z,132.00
2023-01-07T11:18:14.270Z,76.00
2023-01-07T11:19:20.815Z,137.00
2023-01-07T11:20:26.231Z,235.00
2023-01-07T11:21:42.808Z,266.00
2023-01-07T11:22:42.977Z,238.00
2023-01-07T11:23:48.379Z,166.00
2023-01-07T11:24:53.802Z,100.00
2023-01-07T11:25:59.214Z,274.00
2023-01-07T11:27:04.697Z,237.00
2023-01-07T11:28:10.053Z,134.00
2023-01-07T11:29:15.421Z,86.00
2023-01-07T11:30:20.847Z,190.00
2023-01-07T11:31:26.265Z,138.00
2023-01-07T11:32:31.591Z,206.00
2023-01-07T11:34:01.678Z,249.00
2023-01-07T11:34:48.263Z,196.00
2023-01-07T11:35:53.678Z,256.00
2023-01-07T11:36:59.079Z,113.00
2023-01-07T11:38:04.490Z,170.00
2023-01-07T11:39:09.940Z,166.00
2023-01-07T11:40:15.881Z,211.00
2023-01-07T11:41:22.082Z,229.00
2023-01-07T11:42:27.559Z,271.00
2023-01-07T11:43:32.980Z,101.00
2023-01-07T11:44:38.426Z,170.00
2023-01-07T11:45:43.984Z,240.00
2023-01-07T11:46:55.319Z,142.00
2023-01-07T11:48:00.754Z,157.00
2023-01-07T11:49:06.197Z,109.00
2023-01-07T11:50:11.682Z,103.00
2023-01-07T11:51:17.156Z,83.00
2023-01-07T11:52:22.571Z,98.00
2023-01-07T11:53:28.027Z,114.00
2023-01-07T11:54:33.530Z,169.00
2023-01-07T11:55:38.967Z,160.00
2023-01-07T11:56:44.415Z,115.00
2023-01-07T11:57:49.909Z,130.00
2023-01-07T11:58:55.370Z,201.00
2023-01-07T12:00:00.855Z,136.00
2023-01-07T12:01:06.335Z,219.00
2023-01-07T12:02:11.789Z,252.00
2023-01-07T12:03:17.245Z,197.00
2023-01-07T12:04:22.691Z,119.00
2023-01-07T12:05:28.170Z,92.00
2023-01-07T12:06:33.709Z,171.00
2023-01-07T12:07:41.227Z,101.00
2023-01-07T12:08:47.301Z,91.00
2023-01-07T12:09:52.772Z,85.00
2023-01-07T12:10:58.829Z,118.00
2023-01-07T12:12:04.248Z,185.00
2023-01-07T12:13:09.751Z,85.00
2023-01-07T12:14:15.198Z,140.00
2023-01-07T12:15:20.731Z,248.00
2023-01-07T12:16:26.189Z,152.00
2023-01-07T12:17:31.622Z,92.00
2023-01-07T12:18:37.120Z,100.00
2023-01-07T12:19:42.628Z,158.00
2023-01-07T12:20:48.124Z,205.00
2023-01-07T12:21:53.781Z,98.00
2023-01-07T12:23:00.612Z,134.00
2023-01-07T12:24:06.142Z,105.00
2023-01-07T12:25:11.666Z,101.00
2023-01-07T12:26:17.205Z,98.00
2023-01-07T12:27:22.823Z,118.00
2023-01-07T12:28:28.324Z,131.00
2023-01-07T12:29:33.882Z,95.00
2023-01-07T12:30:39.404Z,254.00
2023-01-07T12:31:45.044Z,280.00
2023-01-07T12:32:50.703Z,94.00
2023-01-07T12:33:56.247Z,139.00
2023-01-07T12:35:14.235Z,215.00
2023-01-07T12:36:13.362Z,117.00
2023-01-07T12:37:18.918Z,145.00
2023-01-07T12:38:24.377Z,120.00
2023-01-07T12:39:29.895Z,185.00
2023-01-07T12:40:35.372Z,143.00
2023-01-07T12:41:40.806Z,110.00
2023-01-07T12:42:46.193Z,95.00
2023-01-07T12:43:52.262Z,193.00
2023-01-07T12:44:57.950Z,116.00
2023-01-07T12:46:03.398Z,143.00
2023-01-07T12:47:32.688Z,89.00
2023-01-07T12:48:20.137Z,116.00
2023-01-07T12:49:25.481Z,112.00
2023-01-07T12:50:30.898Z,93.00
2023-01-07T12:51:36.287Z,267.00
2023-01-07T12:52:41.623Z,155.00
2023-01-07T12:53:46.958Z,73.00
2023-01-07T12:54:52.323Z,122.00
2023-01-07T12:55:57.740Z,84.00
2023-01-07T12:57:03.094Z,113.00
2023-01-07T12:58:08.520Z,82.00
2023-01-07T12:59:46.394Z,112.00
2023-01-07T13:00:25.140Z,90.00
2023-01-07T13:01:30.820Z,131.00
2023-01-07T13:02:37.576Z,150.00
2023-01-07T13:03:42.984Z,114.00
2023-01-07T13:04:48.377Z,137.00
2023-01-07T13:05:53.727Z,154.00
2023-01-07T13:06:59.061Z,182.00
2023-01-07T13:08:04.610Z,221.00
2023-01-07T13:09:09.933Z,258.00
2023-01-07T13:10:15.298Z,240.00
2023-01-07T13:11:20.665Z,149.00
2023-01-07T13:12:41.232Z,82.00
2023-01-07T13:13:37.232Z,132.00
2023-01-07T13:14:42.591Z,235.00
2023-01-07T13:15:47.965Z,95.00
2023-01-07T13:16:53.375Z,112.00
2023-01-07T13:17:58.694Z,104.00
2023-01-07T13:19:04.055Z,98.00
2023-01-07T13:20:09.385Z,173.00
2023-01-07T13:21:14.712Z,170.00
2023-01-07T13:22:20.061Z,121.00
2023-01-07T13:23:25.398Z,166.00
2023-01-07T13:24:54.533Z,146.00
2023-01-07T13:25:41.975Z,127.00
2023-01-07T13:26:47.311Z,87.00
2023-01-07T13:27:52.920Z,102.00
2023-01-07T13:28:58.335Z,118.00
2023-01-07T13:30:03.725Z,115.00
2023-01-07T13:31:09.793Z,95.00
2023-01-07T13:32:15.351Z,122.00
2023-01-07T13:33:20.918Z,93.00
2023-01-07T13:34:26.943Z,131.00
2023-01-07T13:35:32.337Z,117.00
2023-01-07T13:36:37.813Z,123.00
2023-01-07T13:37:43.246Z,152.00
2023-01-07T13:38:48.676Z,108.00
2023-01-07T13:39:54.068Z,105.00
2023-01-07T13:40:59.502Z,59.00
2023-01-07T13:42:04.879Z,119.00
2023-01-07T13:43:10.300Z,94.00
2023-01-07T13:44:15.767Z,102.00
2023-01-07T13:45:21.177Z,92.00
2023-01-07T13:46:26.650Z,91.00
2023-01-07T13:47:32.061Z,89.00
2023-01-07T13:48:37.468Z,107.00
2023-01-07T13:49:56.979Z,88.00
2023-01-07T13:50:54.214Z,108.00
2023-01-07T13:51:59.645Z,93.00
2023-01-07T13:53:05.073Z,98.00
2023-01-07T13:54:11.875Z,89.00
2023-01-07T13:55:17.402Z,96.00
2023-01-07T13:56:22.859Z,98.00
2023-01-07T13:57:28.285Z,117.00
2023-01-07T13:58:33.713Z,113.00
2023-01-07T13:59:39.150Z,100.00
2023-01-07T14:00:44.585Z,74.00
2023-01-07T14:01:50.116Z,85.00
2023-01-07T14:02:55.642Z,97.00
2023-01-07T14:04:01.136Z,120.00
2023-01-07T14:05:06.601Z,108.00
2023-01-07T14:06:12.087Z,118.00
2023-01-07T14:07:17.547Z,109.00
2023-01-07T14:08:22.994Z,82.00
2023-01-07T14:09:28.469Z,96.00
2023-01-07T14:10:33.920Z,101.00
2023-01-07T14:11:39.385Z,118.00
2023-01-07T14:12:44.928Z,88.00
2023-01-07T14:13:50.381Z,245.00
2023-01-07T14:14:55.852Z,214.00
2023-01-07T14:16:01.404Z,200.00
2023-01-07T14:17:06.927Z,91.00
2023-01-07T14:18:12.396Z,133.00
2023-01-07T14:19:17.879Z,137.00
2023-01-07T14:20:23.350Z,97.00
2023-01-07T14:21:28.828Z,155.00
2023-01-07T14:22:34.443Z,130.00